Time;durP1;ratioP1;P1;durP2;ratioP2;P2;SDS_P1;SDS_P2;PMS_P1;PMS_P2;Temp;Humidity;BMP_temperature;BMP_pressure;BME280_temperature;BME280_humidity;BME280_pressure;Samples;Min_cycle;Max_cycle;Signal;HPM_P1;HPM_P2
2022/04/25 00:02:03;;;;;;;;;22.75;20.25;;;;;14.32;56.87;100631.09;5012172;28;49756;-65
2022/04/25 00:04:28;;;;;;;;;25.00;22.25;;;;;14.36;56.43;100643.41;5012623;28;49746;-65
2022/04/25 00:06:53;;;;;;;;;26.00;21.00;;;;;14.32;56.57;100641.66;5012761;28;50096;-64
2022/04/25 00:09:19;;;;;;;;;22.75;21.25;;;;;13.96;56.38;100590.47;5012157;28;50348;-66
2022/04/25 00:11:44;;;;;;;;;22.75;18.50;;;;;14.27;56.50;100632.81;5012317;28;49848;-65
2022/04/25 00:14:11;;;;;;;;;23.25;20.25;;;;;14.27;56.39;100632.81;4994447;28;51193;-65
2022/04/25 00:16:36;;;;;;;;;19.00;19.00;;;;;14.30;56.00;100638.13;5012337;28;49930;-64
2022/04/25 00:19:02;;;;;;;;;20.50;18.50;;;;;14.06;56.55;100604.56;5012200;28;50590;-65
2022/04/25 00:21:27;;;;;;;;;19.25;19.25;;;;;14.26;56.75;100639.84;5012214;28;49679;-64
2022/04/25 00:23:53;;;;;;;;;19.25;19.00;;;;;14.21;56.30;100641.63;5012396;28;49896;-64
2022/04/25 00:26:21;;;;;;;;;15.75;15.00;;;;;14.25;56.61;100640.72;5012234;28;49660;-64
2022/04/25 00:28:46;;;;;;;;;21.75;21.50;;;;;14.12;56.24;100633.66;4994427;28;49672;-66
2022/04/25 00:31:13;;;;;;;;;15.25;10.50;;;;;14.06;56.28;100624.81;5012121;28;50060;-65
2022/04/25 00:33:39;;;;;;;;;19.50;18.50;;;;;14.10;56.33;100635.41;4993922;28;50092;-65
2022/04/25 00:36:04;;;;;;;;;21.25;17.75;;;;;14.01;56.64;100628.31;5012013;28;49790;-66
2022/04/25 00:38:30;;;;;;;;;20.25;16.50;;;;;13.96;56.35;100621.25;5011827;28;50740;-64
2022/04/25 00:40:55;;;;;;;;;13.75;10.00;;;;;14.08;56.73;100642.41;5012007;28;49837;-64
2022/04/25 00:43:20;;;;;;;;;19.00;19.00;;;;;14.02;55.90;100645.03;5012059;28;49796;-64
2022/04/25 00:45:46;;;;;;;;;19.75;19.25;;;;;13.89;56.60;100637.91;5011508;28;50217;-66
2022/04/25 00:48:11;;;;;;;;;20.50;19.50;;;;;13.49;56.98;100579.66;5009784;28;49758;-64
2022/04/25 00:50:39;;;;;;;;;24.00;19.50;;;;;13.88;56.96;100644.06;4995657;28;49809;-64
2022/04/25 00:53:05;;;;;;;;;21.25;18.25;;;;;13.81;56.89;100634.38;5012141;28;49908;-64
2022/04/25 00:55:31;;;;;;;;;20.75;16.25;;;;;13.77;57.03;100637.84;5012252;28;49836;-64
2022/04/25 00:57:57;;;;;;;;;16.00;15.75;;;;;13.64;56.94;100621.09;5011772;28;50304;-66
2022/04/25 01:00:23;;;;;;;;;22.25;20.50;;;;;13.65;56.95;100631.63;5012010;28;49838;-64
2022/04/25 01:02:49;;;;;;;;;24.00;21.00;;;;;13.65;57.14;100638.69;5010297;28;49727;-68
2022/04/25 01:05:14;;;;;;;;;26.75;22.50;;;;;13.46;57.92;100632.41;5011769;28;49830;-65
2022/04/25 01:07:40;;;;;;;;;19.00;18.25;;;;;13.47;57.82;100634.16;5011372;28;49898;-65
2022/04/25 01:10:07;;;;;;;;;22.50;19.00;;;;;13.36;57.65;100602.44;5011345;28;49924;-65
2022/04/25 01:12:33;;;;;;;;;13.25;13.25;;;;;13.49;57.81;100621.84;5011596;28;49815;-65
2022/04/25 01:15:00;;;;;;;;;15.50;15.50;;;;;13.15;57.72;100578.53;5011915;28;49661;-65
2022/04/25 01:17:26;;;;;;;;;16.25;14.25;;;;;13.52;57.57;100637.72;5011087;28;51003;-65
2022/04/25 01:19:52;;;;;;;;;18.50;17.00;;;;;13.57;57.88;100643.91;5011645;28;49676;-65
2022/04/25 01:22:21;;;;;;;;;22.75;18.50;;;;;13.57;57.66;100649.16;5011324;28;49675;-64
2022/04/25 01:27:32;;;;;;;;;20.50;17.00;;;;;13.48;57.68;100645.59;5011089;28;50096;-66
2022/04/25 01:29:58;;;;;;;;;20.00;20.00;;;;;13.44;58.03;100649.97;4993438;28;50089;-65
2022/04/25 01:32:24;;;;;;;;;23.00;20.25;;;;;13.35;58.05;100634.97;5010621;28;49645;-65
2022/04/25 01:34:50;;;;;;;;;16.50;16.25;;;;;13.14;58.33;100595.22;5011293;28;50026;-65
2022/04/25 01:37:17;;;;;;;;;20.00;19.00;;;;;13.16;58.85;100617.19;5010902;28;50440;-65
2022/04/25 01:39:47;;;;;;;;;17.75;15.50;;;;;13.28;58.60;100640.16;5010941;28;49846;-65
2022/04/25 01:42:13;;;;;;;;;15.00;13.00;;;;;13.27;58.88;100644.56;5011156;28;49572;-65
2022/04/25 01:44:39;;;;;;;;;14.00;13.75;;;;;13.20;59.12;100647.13;5007472;28;49854;-64
2022/04/25 01:47:06;;;;;;;;;19.50;15.75;;;;;13.08;59.57;100637.34;5010698;28;49786;-64
2022/04/25 01:49:32;;;;;;;;;20.50;14.75;;;;;13.10;59.92;100652.28;5011262;28;49708;-64
2022/04/25 01:52:08;;;;;;;;;21.25;18.50;;;;;13.05;59.93;100648.75;5011065;28;49659;-64
2022/04/25 01:54:33;;;;;;;;;16.25;14.50;;;;;13.07;60.42;100649.63;5011132;28;49666;-64
2022/04/25 01:57:01;;;;;;;;;18.25;15.50;;;;;12.89;60.14;100634.53;5010679;28;50604;-65
2022/04/25 01:59:27;;;;;;;;;21.25;15.50;;;;;12.82;61.00;100655.53;5010754;28;49655;-65
2022/04/25 02:01:52;;;;;;;;;15.00;13.75;;;;;12.81;61.40;100665.19;5010504;28;49676;-64
2022/04/25 02:04:19;;;;;;;;;18.75;17.75;;;;;12.85;61.10;100660.84;5010691;28;49834;-67
2022/04/25 02:06:44;;;;;;;;;21.50;18.25;;;;;12.91;61.41;100666.16;5010862;28;49627;-65
2022/04/25 02:09:10;;;;;;;;;21.00;19.25;;;;;12.89;61.35;100676.69;5009270;28;49794;-66
2022/04/25 02:11:36;;;;;;;;;18.50;18.25;;;;;12.85;61.82;100681.91;5010986;28;49840;-67
2022/04/25 02:14:01;;;;;;;;;18.00;15.75;;;;;12.85;62.19;100684.56;5010963;28;49763;-65
2022/04/25 02:16:27;;;;;;;;;17.75;17.00;;;;;12.82;62.68;100680.13;5009986;28;49807;-67
2022/04/25 02:18:54;;;;;;;;;20.25;17.50;;;;;12.81;62.77;100680.09;5010331;28;49791;-66
2022/04/25 02:21:19;;;;;;;;;17.25;17.00;;;;;12.83;62.80;100692.41;5010789;28;49952;-67
2022/04/25 02:23:45;;;;;;;;;21.75;18.25;;;;;12.86;62.58;100683.69;5010678;28;49872;-65
2022/04/25 02:26:10;;;;;;;;;20.25;18.50;;;;;12.88;62.71;100687.22;5010321;28;51657;-66
2022/04/25 02:28:37;;;;;;;;;19.75;18.00;;;;;12.82;62.71;100679.22;5010424;28;49791;-64
2022/04/25 02:31:04;;;;;;;;;22.00;20.25;;;;;12.83;63.14;100673.97;5010432;28;49811;-65
2022/04/25 02:33:31;;;;;;;;;20.00;17.25;;;;;12.35;63.65;100612.88;5010228;28;49994;-65
2022/04/25 02:35:56;;;;;;;;;16.50;15.25;;;;;12.69;64.07;100683.50;5009413;28;51344;-65
2022/04/25 02:38:21;;;;;;;;;19.00;18.25;;;;;12.74;64.34;100678.25;5010330;28;49989;-65
2022/04/25 02:41:04;;;;;;;;;18.50;14.75;;;;;12.69;64.38;100672.09;5010316;28;50018;-66
2022/04/25 02:43:43;;;;;;;;;19.25;17.75;;;;;12.74;64.98;100679.19;5010427;28;49830;-65
2022/04/25 02:46:12;;;;;;;;;19.75;17.00;;;;;12.60;65.31;100664.97;5013396;28;49811;-65
2022/04/25 02:48:40;;;;;;;;;18.75;17.75;;;;;12.55;65.10;100656.16;5013669;28;49887;-65
2022/04/25 02:51:07;;;;;;;;;19.50;16.50;;;;;12.60;65.70;100663.22;5013749;28;49928;-64
2022/04/25 02:53:34;;;;;;;;;18.00;17.00;;;;;12.65;66.17;100683.47;5013945;28;49679;-65
2022/04/25 02:56:02;;;;;;;;;20.00;16.25;;;;;12.71;66.08;100678.25;5013460;28;50250;-65
2022/04/25 02:58:29;;;;;;;;;22.00;20.50;;;;;12.72;66.10;100687.91;5013658;28;49669;-64
2022/04/25 03:00:55;;;;;;;;;19.25;17.50;;;;;12.54;65.84;100660.50;5013774;28;49651;-65
2022/04/25 03:03:21;;;;;;;;;20.75;18.75;;;;;12.73;66.44;100690.56;5013662;28;49946;-65
2022/04/25 03:05:48;;;;;;;;;20.75;19.00;;;;;12.65;66.77;100686.97;5013647;28;50756;-65
2022/04/25 03:08:17;;;;;;;;;23.75;19.75;;;;;12.55;67.12;100683.34;5013683;28;49800;-65
2022/04/25 03:10:43;;;;;;;;;18.00;15.25;;;;;12.46;67.26;100672.72;5013415;28;49635;-65
2022/04/25 03:13:10;;;;;;;;;21.50;20.50;;;;;12.66;67.06;100695.75;5013624;28;49711;-65
2022/04/25 03:15:39;;;;;;;;;20.75;18.25;;;;;12.64;67.26;100686.94;5005389;28;49646;-65
2022/04/25 03:18:06;;;;;;;;;18.25;18.25;;;;;12.44;67.34;100670.91;4994475;28;49926;-65
2022/04/25 03:20:32;;;;;;;;;21.75;19.75;;;;;12.54;68.06;100705.25;5013650;28;50050;-65
2022/04/25 03:22:58;;;;;;;;;17.75;14.50;;;;;12.46;68.35;100700.78;5012859;28;49676;-67
2022/04/25 03:25:23;;;;;;;;;27.75;23.00;;;;;12.39;68.45;100697.19;5012788;28;50704;-65
2022/04/25 03:27:49;;;;;;;;;24.25;19.75;;;;;12.26;69.58;100697.91;5013151;28;49789;-65
2022/04/25 03:30:14;;;;;;;;;21.75;19.50;;;;;12.21;69.85;100696.97;5012972;28;50039;-65
2022/04/25 03:32:46;;;;;;;;;29.00;23.75;;;;;12.22;69.81;100699.59;5012970;28;49809;-65
2022/04/25 03:35:13;;;;;;;;;24.25;23.00;;;;;12.19;70.21;100693.44;5012865;28;50023;-65
2022/04/25 03:37:39;;;;;;;;;27.75;23.75;;;;;12.25;70.17;100704.91;5013181;28;49659;-66
2022/04/25 03:40:05;;;;;;;;;24.25;23.50;;;;;12.27;69.93;100702.31;5012785;28;49704;-65
2022/04/25 03:42:31;;;;;;;;;27.00;23.50;;;;;12.27;70.06;100702.31;5013076;28;49914;-65
2022/04/25 03:44:57;;;;;;;;;23.25;20.75;;;;;12.25;70.26;100702.25;4994731;28;50725;-65
2022/04/25 03:47:23;;;;;;;;;26.75;23.50;;;;;12.20;69.95;100703.09;5012452;28;49846;-65
2022/04/25 03:49:48;;;;;;;;;22.00;19.25;;;;;12.28;70.18;100707.59;5012801;28;49840;-65
2022/04/25 03:52:14;;;;;;;;;27.75;25.75;;;;;12.22;70.20;100704.00;5012928;28;49793;-65
2022/04/25 03:57:23;;;;;;;;;25.50;24.00;;;;;12.24;70.44;100712.78;5012603;28;49784;-65
2022/04/25 03:59:48;;;;;;;;;27.25;21.25;;;;;12.18;70.51;100715.34;5012904;28;50085;-66
2022/04/25 04:02:13;;;;;;;;;26.50;24.50;;;;;12.19;70.64;100711.84;5011206;28;49723;-65
2022/04/25 04:04:39;;;;;;;;;24.00;21.25;;;;;12.13;71.05;100719.66;5012298;28;50462;-68
2022/04/25 04:07:05;;;;;;;;;25.75;25.25;;;;;12.12;71.13;100718.78;5012243;28;49651;-65
2022/04/25 04:09:45;;;;;;;;;26.25;22.50;;;;;12.13;71.16;100712.63;5012548;28;49935;-66
2022/04/25 04:12:15;;;;;;;;;29.00;26.75;;;;;11.71;71.15;100642.75;5012723;28;49556;-65
2022/04/25 04:14:41;;;;;;;;;28.50;26.75;;;;;12.05;71.39;100724.81;5012487;28;49998;-66
2022/04/25 04:17:07;;;;;;;;;23.75;22.00;;;;;11.94;71.74;100708.88;4994192;28;49797;-66
2022/04/25 04:19:33;;;;;;;;;27.75;26.50;;;;;11.93;72.03;100722.00;5012146;28;49710;-65
2022/04/25 04:22:01;;;;;;;;;21.50;21.50;;;;;11.87;72.15;100722.81;5012535;28;49727;-66
2022/04/25 04:24:27;;;;;;;;;29.75;28.00;;;;;11.71;72.68;100705.00;5011926;28;49572;-66
2022/04/25 04:26:52;;;;;;;;;31.00;25.50;;;;;11.79;72.76;100736.69;5012233;28;49663;-66
2022/04/25 04:29:18;;;;;;;;;31.75;27.50;;;;;11.71;73.46;100739.19;5012274;28;49849;-66
2022/04/25 04:31:46;;;;;;;;;27.50;26.00;;;;;11.67;73.43;100742.59;5012171;28;49796;-66
2022/04/25 04:34:11;;;;;;;;;29.00;27.00;;;;;11.53;73.44;100717.84;5011851;28;50341;-66
2022/04/25 04:36:37;;;;;;;;;27.25;26.75;;;;;11.47;73.81;100729.13;5011985;28;49804;-66
2022/04/25 04:39:02;;;;;;;;;26.00;25.00;;;;;11.44;74.16;100739.59;5012099;28;49798;-66
2022/04/25 04:41:28;;;;;;;;;29.50;29.00;;;;;11.55;74.10;100748.56;5012117;28;49805;-66
2022/04/25 04:43:57;;;;;;;;;34.25;30.25;;;;;11.51;73.69;100736.22;5011807;28;50393;-67
2022/04/25 04:46:23;;;;;;;;;29.50;29.25;;;;;11.62;74.09;100750.44;5011603;28;49756;-66
2022/04/25 04:48:48;;;;;;;;;30.00;27.00;;;;;11.65;73.53;100760.09;5012036;28;49739;-65
2022/04/25 04:51:14;;;;;;;;;36.00;32.25;;;;;11.65;73.45;100761.00;5012236;28;49920;-66
2022/04/25 04:53:39;;;;;;;;;34.75;30.25;;;;;11.73;73.38;100769.00;5011833;28;50030;-66
2022/04/25 04:56:04;;;;;;;;;24.00;22.75;;;;;11.72;73.52;100765.50;5011179;28;49735;-66
2022/04/25 04:58:30;;;;;;;;;31.25;30.00;;;;;11.80;73.23;100781.44;5011815;28;49792;-65
2022/04/25 05:00:55;;;;;;;;;38.75;34.25;;;;;11.81;73.21;100772.69;5011889;28;49839;-65
2022/04/25 05:03:20;;;;;;;;;36.25;33.00;;;;;11.57;73.18;100744.19;5011289;28;49805;-66
2022/04/25 05:05:46;;;;;;;;;40.50;32.00;;;;;11.76;73.48;100780.44;4990382;28;49706;-66
2022/04/25 05:08:11;;;;;;;;;34.25;31.50;;;;;11.69;73.47;100785.59;4989373;28;49850;-66
2022/04/25 05:10:37;;;;;;;;;49.00;36.75;;;;;11.65;73.17;100789.91;4993436;28;49964;-65
2022/04/25 05:13:05;;;;;;;;;37.00;35.25;;;;;11.60;73.41;100777.56;5011389;28;50568;-65
2022/04/25 05:15:31;;;;;;;;;35.00;31.75;;;;;11.69;73.48;100798.75;5011460;28;49757;-65
2022/04/25 05:17:56;;;;;;;;;43.50;37.00;;;;;11.62;73.58;100792.50;5010859;28;49920;-65
2022/04/25 05:20:23;;;;;;;;;42.25;37.00;;;;;11.67;73.64;100798.69;5011572;28;49932;-66
2022/04/25 05:22:50;;;;;;;;;45.00;37.50;;;;;11.54;73.46;100783.59;5011358;28;50519;-67
2022/04/25 05:25:24;;;;;;;;;39.00;35.75;;;;;11.74;73.42;100813.75;5011391;28;49908;-65
2022/04/25 05:27:52;;;;;;;;;42.50;36.75;;;;;11.62;72.86;100784.63;5011448;28;49738;-65
2022/04/25 05:30:19;;;;;;;;;39.75;35.00;;;;;11.77;72.78;100805.00;5011369;28;50052;-67
2022/04/25 05:32:46;;;;;;;;;39.25;34.75;;;;;11.75;72.96;100819.88;5010931;28;50578;-65
2022/04/25 05:35:13;;;;;;;;;43.25;39.25;;;;;11.67;73.28;100819.75;5010776;28;49855;-65
2022/04/25 05:37:39;;;;;;;;;41.25;35.75;;;;;11.49;73.09;100808.06;4993206;28;49746;-65
2022/04/25 05:40:06;;;;;;;;;47.00;39.00;;;;;11.46;73.91;100817.63;5011187;28;49849;-64
2022/04/25 05:42:33;;;;;;;;;45.75;38.50;;;;;11.39;74.17;100828.91;4993126;28;50788;-65
2022/04/25 05:45:00;;;;;;;;;51.50;42.50;;;;;11.25;74.11;100816.34;5010948;28;50451;-65
2022/04/25 05:47:26;;;;;;;;;53.25;44.50;;;;;11.32;74.15;100831.38;5010856;28;49826;-64
2022/04/25 05:52:36;;;;;;;;;48.50;38.50;;;;;10.96;74.65;100810.53;5010509;28;49679;-65
2022/04/25 05:55:02;;;;;;;;;49.50;41.00;;;;;11.10;74.76;100830.09;4992828;28;50167;-65
2022/04/25 05:57:28;;;;;;;;;53.25;41.50;;;;;11.22;74.50;100853.09;5010716;28;49797;-65
2022/04/25 05:59:53;;;;;;;;;38.00;36.00;;;;;11.26;74.14;100854.91;5011088;28;49812;-64
2022/04/25 06:02:19;;;;;;;;;53.25;43.00;;;;;11.21;74.24;100851.31;5010311;28;49753;-64
2022/04/25 06:04:44;;;;;;;;;46.75;38.50;;;;;11.10;74.42;100832.72;5010819;28;49852;-65
2022/04/25 06:07:10;;;;;;;;;54.25;45.25;;;;;11.23;74.03;100860.13;5010654;28;50537;-66
2022/04/25 06:09:35;;;;;;;;;51.00;42.50;;;;;11.03;73.44;100844.84;5010795;28;49627;-69
2022/04/25 06:12:02;;;;;;;;;53.25;45.25;;;;;11.09;74.67;100863.34;5010224;28;49733;-68
2022/04/25 06:14:28;;;;;;;;;53.25;39.00;;;;;10.99;74.56;100849.97;4993098;28;49838;-70
2022/04/25 06:16:53;;;;;;;;;47.75;38.75;;;;;11.15;75.20;100862.59;5008658;28;49885;-69
2022/04/25 06:19:18;;;;;;;;;50.00;42.00;;;;;11.11;74.68;100887.94;5010462;28;49655;-72
2022/04/25 06:21:44;;;;;;;;;51.75;42.75;;;;;10.94;73.71;100828.91;5010693;28;50731;-70
2022/04/25 06:24:09;;;;;;;;;53.00;44.00;;;;;11.16;74.35;100867.88;5015197;28;49770;-70
2022/04/25 06:26:36;;;;;;;;;53.00;43.00;;;;;11.07;74.47;100877.31;5010425;28;49713;-70
2022/04/25 06:29:02;;;;;;;;;57.25;45.50;;;;;10.92;73.76;100867.38;5010546;28;49803;-66
2022/04/25 06:31:27;;;;;;;;;53.25;44.00;;;;;10.99;73.91;100871.88;5010337;28;49960;-68
2022/04/25 06:33:52;;;;;;;;;56.75;44.75;;;;;11.15;73.88;100883.59;5010464;28;49880;-66
2022/04/25 06:36:18;;;;;;;;;51.25;44.50;;;;;11.38;73.75;100881.41;5010208;28;49886;-67
2022/04/25 06:38:43;;;;;;;;;50.75;40.00;;;;;11.51;72.31;100874.69;5010856;28;50070;-72
2022/04/25 06:41:09;;;;;;;;;48.50;38.25;;;;;11.35;72.13;100836.69;5010088;28;49793;-67
2022/04/25 06:43:36;;;;;;;;;60.00;46.50;;;;;11.60;72.01;100891.50;5010181;28;50030;-66
2022/04/25 06:46:02;;;;;;;;;53.25;42.25;;;;;11.58;71.79;100893.22;5009952;28;49829;-66
2022/04/25 06:48:27;;;;;;;;;56.00;46.50;;;;;11.66;71.82;100891.59;5010300;28;49936;-67
2022/04/25 06:50:55;;;;;;;;;49.50;38.00;;;;;11.73;71.41;100888.22;5010078;28;49659;-68
2022/04/25 06:53:21;;;;;;;;;52.00;42.75;;;;;11.71;71.40;100876.81;5010042;28;49636;-66
2022/04/25 06:55:46;;;;;;;;;51.50;42.00;;;;;11.79;70.93;100879.59;5010247;28;49611;-66
2022/04/25 06:58:12;;;;;;;;;49.50;40.75;;;;;12.05;70.21;100898.47;5010359;28;49600;-67
2022/04/25 07:00:38;;;;;;;;;52.75;42.00;;;;;12.04;69.92;100889.69;5009884;28;51587;-66
2022/04/25 07:03:04;;;;;;;;;49.50;40.25;;;;;12.08;69.90;100898.53;5009622;28;49825;-66
2022/04/25 07:05:30;;;;;;;;;51.25;42.25;;;;;11.91;69.72;100850.88;5009883;28;49732;-66
2022/04/25 07:07:56;;;;;;;;;41.75;36.25;;;;;11.95;69.83;100870.22;5009927;28;49809;-66
2022/04/25 07:10:21;;;;;;;;;53.50;45.00;;;;;12.19;69.81;100902.22;5009855;28;50170;-70
2022/04/25 07:12:47;;;;;;;;;52.25;43.00;;;;;12.24;69.36;100903.16;5009938;28;50101;-67
2022/04/25 07:15:12;;;;;;;;;46.50;39.25;;;;;12.33;68.98;100889.28;5010061;28;49818;-67
2022/04/25 07:17:38;;;;;;;;;45.75;38.00;;;;;12.12;68.56;100823.16;5009773;28;49783;-68
2022/04/25 07:20:04;;;;;;;;;54.00;43.25;;;;;12.45;67.87;100892.13;5009634;28;50253;-77
2022/04/25 07:31:01;;;;;;;;;53.00;41.75;;;;;12.45;67.91;100891.19;5007228;28;49807;-69
2022/04/25 07:33:26;;;;;;;;;58.00;48.25;;;;;12.66;67.81;100906.47;5019300;28;49522;-70
2022/04/25 07:35:53;;;;;;;;;53.00;43.00;;;;;12.59;68.05;100901.09;5026421;28;49528;-68
2022/04/25 07:38:18;;;;;;;;;48.50;41.25;;;;;12.39;67.99;100904.28;5029426;28;49423;-71
2022/04/25 07:40:44;;;;;;;;;39.50;35.00;;;;;12.32;68.20;100900.66;5026737;28;50074;-67
2022/04/25 07:43:10;;;;;;;;;54.50;44.25;;;;;12.25;68.16;100889.16;5028191;28;49738;-68
2022/04/25 07:45:35;;;;;;;;;54.75;43.00;;;;;12.13;68.42;100880.19;5019770;28;49999;-68
2022/04/25 07:48:00;;;;;;;;;54.25;44.25;;;;;12.25;68.64;100906.69;5019432;28;49307;-69
2022/04/25 07:50:26;;;;;;;;;59.00;47.00;;;;;12.20;68.48;100896.09;5016162;28;50384;-70
2022/04/25 07:52:51;;;;;;;;;49.00;40.75;;;;;12.23;68.81;100879.47;5020729;28;49703;-68
2022/04/25 07:55:17;;;;;;;;;52.50;45.00;;;;;12.59;68.62;100908.13;5020186;28;49806;-68
2022/04/25 07:57:42;;;;;;;;;51.75;43.00;;;;;12.64;67.12;100902.91;5009382;28;50072;-69
2022/04/25 08:00:08;;;;;;;;;50.50;41.25;;;;;12.98;66.99;100923.59;5019586;28;50480;-71
2022/04/25 08:02:33;;;;;;;;;53.50;44.00;;;;;12.99;66.17;100906.03;5020165;28;49647;-69
2022/04/25 08:04:59;;;;;;;;;38.25;35.25;;;;;13.04;65.99;100928.97;5029256;28;49452;-69
2022/04/25 08:07:24;;;;;;;;;51.50;41.00;;;;;13.05;65.77;100936.00;5021889;28;49860;-67
2022/04/25 08:09:50;;;;;;;;;47.00;40.25;;;;;13.02;65.92;100932.41;5025969;28;49677;-68
2022/04/25 08:18:01;;;;;;;;;48.75;41.50;;;;;12.86;64.97;100920.81;5019511;28;49892;-69
2022/04/25 08:20:28;;;;;;;;;43.75;36.75;;;;;12.95;65.56;100930.59;5010634;28;51577;-69
2022/04/25 08:22:55;;;;;;;;;55.25;43.25;;;;;13.03;65.42;100939.50;5013582;28;49881;-70
2022/04/25 08:25:20;;;;;;;;;49.50;41.00;;;;;13.08;65.40;100951.84;5012506;28;49750;-68
2022/04/25 08:27:46;;;;;;;;;45.75;38.75;;;;;12.96;65.62;100951.69;5015366;28;49825;-72
2022/04/25 08:30:14;;;;;;;;;47.00;40.25;;;;;12.83;65.27;100941.81;5012283;28;50290;-73
2022/04/25 08:32:40;;;;;;;;;54.25;42.75;;;;;12.97;65.23;100953.44;5011708;28;49856;-72
2022/04/25 08:35:05;;;;;;;;;40.00;36.00;;;;;12.97;64.85;100952.56;5011808;28;49712;-72
2022/04/25 08:37:31;;;;;;;;;36.50;32.75;;;;;12.89;65.12;100953.34;5012057;28;49863;-72
2022/04/25 08:39:56;;;;;;;;;50.75;43.00;;;;;13.18;65.00;100955.50;5011843;28;49679;-72
2022/04/25 08:42:22;;;;;;;;;53.75;43.50;;;;;13.40;64.63;100944.38;5010872;28;49565;-72
2022/04/25 08:44:51;;;;;;;;;47.75;39.50;;;;;13.73;63.23;100972.91;5012076;28;50111;-72
2022/04/25 08:47:17;;;;;;;;;53.50;44.50;;;;;13.79;62.45;100971.19;5012243;28;49649;-72
2022/04/25 08:49:43;;;;;;;;;51.50;42.00;;;;;13.92;62.42;100968.72;5011210;28;50918;-72
2022/04/25 08:52:10;;;;;;;;;50.00;41.00;;;;;13.92;62.17;100950.25;4993900;28;49705;-72
2022/04/25 08:54:35;;;;;;;;;51.00;41.50;;;;;13.75;61.81;100921.03;5012207;28;50008;-72
2022/04/25 08:57:03;;;;;;;;;49.00;41.50;;;;;14.21;61.85;100963.72;5011711;28;49746;-71
2022/04/25 08:59:31;;;;;;;;;51.50;41.50;;;;;14.48;61.19;100970.16;5011604;28;50430;-72
2022/04/25 09:01:57;;;;;;;;;50.25;43.00;;;;;14.36;60.24;100946.22;5011844;28;49770;-72
2022/04/25 09:04:23;;;;;;;;;56.00;46.50;;;;;14.63;59.59;100972.03;5011383;28;49899;-71
2022/04/25 09:06:55;;;;;;;;;52.00;41.00;;;;;14.23;59.75;100914.44;4993982;28;50055;-70
2022/04/25 09:09:20;;;;;;;;;50.00;41.75;;;;;14.39;60.26;100928.69;5011231;28;50835;-71
2022/04/25 09:14:32;;;;;;;;;44.25;37.75;;;;;14.77;58.21;100950.13;4996162;28;50000;-70
2022/04/25 09:16:58;;;;;;;;;42.50;36.25;;;;;14.72;57.41;100906.03;4993751;28;50042;-70
2022/04/25 09:19:24;;;;;;;;;44.25;36.00;;;;;14.81;57.79;100919.31;5011055;28;49653;-71
2022/04/25 09:21:50;;;;;;;;;43.25;36.75;;;;;14.74;58.51;100931.59;5011447;28;49737;-70
2022/04/25 09:24:29;;;;;;;;;48.00;40.25;;;;;15.18;58.57;100941.53;5011820;28;50083;-71
2022/04/25 09:27:07;;;;;;;;;46.50;38.00;;;;;15.27;57.09;100981.25;5011325;28;49913;-71
2022/04/25 09:29:34;;;;;;;;;35.75;33.50;;;;;15.17;58.19;100937.13;5010827;28;50768;-70
2022/04/25 09:32:00;;;;;;;;;42.75;36.50;;;;;15.47;57.44;100994.56;4993132;28;49611;-70
2022/04/25 09:37:12;;;;;;;;;35.25;33.00;;;;;15.59;56.92;100969.91;5011383;28;49959;-71
2022/04/25 09:39:38;;;;;;;;;39.00;35.25;;;;;15.40;56.57;100950.44;4993004;28;52202;-71
2022/04/25 09:42:04;;;;;;;;;42.25;35.75;;;;;15.59;56.16;100985.81;5010659;28;49866;-71
2022/04/25 09:44:54;;;;;;;;;42.50;37.75;;;;;15.42;56.91;100991.00;5011166;28;49795;-71
2022/04/25 09:47:30;;;;;;;;;35.00;33.50;;;;;14.66;56.89;100920.06;4993358;28;49597;-72
2022/04/25 09:50:08;;;;;;;;;43.00;36.00;;;;;15.07;57.56;100996.13;4993014;28;50745;-72
2022/04/25 09:52:35;;;;;;;;;45.50;38.25;;;;;14.55;56.87;100916.47;5010675;28;49697;-71
2022/04/25 09:55:16;;;;;;;;;35.25;33.25;;;;;14.48;57.75;100891.81;5010536;28;49944;-71
2022/04/25 09:57:44;;;;;;;;;40.75;33.00;;;;;14.43;57.51;100879.38;5011121;28;49787;-70
2022/04/25 10:00:10;;;;;;;;;36.00;32.50;;;;;14.18;56.40;100822.88;5010556;28;50120;-71
2022/04/25 10:02:40;;;;;;;;;38.75;35.00;;;;;15.04;56.91;101027.81;5010522;28;49706;-71
2022/04/25 10:05:14;;;;;;;;;35.00;30.50;;;;;15.14;57.15;100990.88;5010788;28;49811;-70
2022/04/25 10:07:40;;;;;;;;;33.50;30.50;;;;;15.02;56.45;100916.78;5010847;28;49937;-71
2022/04/25 10:10:08;;;;;;;;;40.75;34.75;;;;;15.60;56.14;100991.13;5015665;28;50933;-71
2022/04/25 10:12:36;;;;;;;;;31.25;30.50;;;;;15.37;55.76;100950.44;4994938;28;49796;-71
2022/04/25 10:15:01;;;;;;;;;34.00;32.25;;;;;15.19;56.23;100919.50;5002751;28;49694;-71
2022/04/25 10:17:28;;;;;;;;;31.75;29.25;;;;;15.57;56.48;100988.44;5010429;28;49932;-71
2022/04/25 10:19:55;;;;;;;;;31.75;30.25;;;;;15.52;55.50;100984.00;5010487;28;49840;-71
2022/04/25 10:22:21;;;;;;;;;28.50;27.50;;;;;15.26;54.62;100955.69;5010422;28;49674;-72
2022/04/25 10:24:46;;;;;;;;;31.75;28.00;;;;;14.94;55.47;100926.41;5008547;28;49739;-72
2022/04/25 10:27:15;;;;;;;;;27.25;23.75;;;;;14.75;53.23;100943.91;5010635;28;49770;-72
2022/04/25 10:29:52;;;;;;;;;28.50;28.50;;;;;13.89;54.65;100827.91;5010178;28;50817;-72
2022/04/25 10:32:22;;;;;;;;;30.75;30.00;;;;;13.71;54.17;100786.47;5009159;28;50110;-72
2022/04/25 10:35:01;;;;;;;;;33.75;30.75;;;;;14.60;53.70;100954.41;5010355;28;49856;-72
2022/04/25 10:37:29;;;;;;;;;32.75;30.50;;;;;14.77;53.42;100992.41;5010383;28;49880;-72
2022/04/25 10:39:55;;;;;;;;;28.25;27.00;;;;;14.79;54.13;100989.78;5010009;28;50356;-72
2022/04/25 10:45:05;;;;;;;;;36.00;31.25;;;;;14.11;53.78;100829.00;5010394;28;49854;-72
2022/04/25 10:47:30;;;;;;;;;25.75;24.75;;;;;14.26;53.34;100879.25;5008772;28;49924;-72
2022/04/25 10:49:58;;;;;;;;;21.00;21.00;;;;;14.74;51.77;100931.59;5010214;28;50647;-72
2022/04/25 10:52:42;;;;;;;;;30.00;27.75;;;;;15.06;52.87;100984.66;5010076;28;49854;-73
2022/04/25 10:55:19;;;;;;;;;22.75;22.00;;;;;15.08;51.56;100990.84;5010065;28;50097;-72
2022/04/25 10:58:03;;;;;;;;;28.50;28.25;;;;;15.25;53.28;100990.94;5010023;28;49869;-72
2022/04/25 11:00:39;;;;;;;;;34.25;31.25;;;;;15.51;53.68;100988.41;5009596;28;50040;-72
2022/04/25 11:03:06;;;;;;;;;31.00;31.00;;;;;14.66;53.06;100842.56;5009684;28;50032;-72
2022/04/25 11:05:31;;;;;;;;;24.00;20.50;;;;;15.13;52.34;100864.81;5011255;28;49873;-72
2022/04/25 11:08:15;;;;;;;;;26.50;24.00;;;;;15.99;52.39;100986.84;5013697;28;49853;-72
2022/04/25 11:10:44;;;;;;;;;29.50;27.00;;;;;15.19;51.42;100895.69;5013350;28;49834;-72
2022/04/25 11:13:12;;;;;;;;;27.25;26.00;;;;;15.48;49.82;100963.72;5013344;28;49758;-73
2022/04/25 11:15:41;;;;;;;;;32.00;24.50;;;;;15.63;51.85;101001.75;5013138;28;49886;-72
2022/04/25 11:18:37;;;;;;;;;22.25;21.00;;;;;15.59;49.88;100988.44;5013379;28;49940;-72
2022/04/25 11:21:08;;;;;;;;;26.75;21.50;;;;;15.83;48.94;100996.53;5013045;28;49841;-72
2022/04/25 11:23:50;;;;;;;;;20.00;18.00;;;;;15.89;48.17;100987.69;5013325;28;49916;-72
2022/04/25 11:26:22;;;;;;;;;20.50;18.25;;;;;16.01;47.71;100993.88;5013822;28;49943;-72
2022/04/25 11:29:01;;;;;;;;;23.00;20.75;;;;;16.04;47.58;100987.75;5013547;28;49245;-72
2022/04/25 11:31:28;;;;;;;;;23.50;20.50;;;;;15.40;47.15;100882.53;5013393;28;50311;-72
2022/04/25 11:34:05;;;;;;;;;21.25;20.25;;;;;15.46;47.10;100837.59;5012787;28;49848;-72
2022/04/25 11:36:36;;;;;;;;;16.25;15.00;;;;;14.97;45.72;100761.69;5012636;28;49987;-72
2022/04/25 11:41:46;;;;;;;;;11.75;11.50;;;;;16.41;43.14;100942.75;5012840;28;49764;-72
2022/04/25 11:44:12;;;;;;;;;15.50;15.00;;;;;16.33;42.48;100889.75;5012897;28;49747;-73